Time;durP1;ratioP1;P1;durP2;ratioP2;P2;SDS_P1;SDS_P2;PMS_P1;PMS_P2;Temp;Humidity;BMP_temperature;BMP_pressure;BME280_temperature;BME280_humidity;BME280_pressure;Samples;Min_cycle;Max_cycle;Signal;HPM_P1;HPM_P2
2023/12/25 00:01:48;;;;;;;0.00;0.00;;;;;;;10.50;100.00;151316.09;13095567;22;20083;-81
2023/12/25 00:06:50;;;;;;;0.25;0.10;;;;;;;10.50;100.00;151316.09;13052249;22;20049;-82
2023/12/25 00:11:51;;;;;;;0.15;0.10;;;;;;;10.42;100.00;151294.13;13074924;22;20460;-82
2023/12/25 00:16:53;;;;;;;0.08;0.08;;;;;;;10.44;100.00;151300.56;13074238;22;20102;-82
2023/12/25 00:21:55;;;;;;;0.20;0.05;;;;;;;10.44;100.00;151300.56;13072486;22;20022;-81
2023/12/25 00:26:56;;;;;;;0.30;0.10;;;;;;;10.63;100.00;151348.38;13072538;22;20019;-81
2023/12/25 00:31:58;;;;;;;0.10;0.10;;;;;;;10.62;100.00;151345.75;13072413;22;20475;-81
2023/12/25 00:37:00;;;;;;;0.10;0.10;;;;;;;10.73;100.00;151372.91;13046313;22;20026;-81
2023/12/25 00:42:01;;;;;;;0.47;0.10;;;;;;;10.69;100.00;151362.56;13044694;22;20027;-82
2023/12/25 00:47:03;;;;;;;0.20;0.00;;;;;;;10.57;100.00;151334.13;13072811;22;20042;-82
2023/12/25 00:52:05;;;;;;;0.15;0.15;;;;;;;10.60;100.00;151341.91;13072517;22;20416;-82
2023/12/25 00:57:07;;;;;;;0.30;0.10;;;;;;;10.49;100.00;151313.53;13072762;22;20058;-82
2023/12/25 01:02:09;;;;;;;0.00;0.00;;;;;;;10.58;100.00;151336.75;13043388;22;20098;-82
2023/12/25 01:07:10;;;;;;;0.75;0.20;;;;;;;10.59;100.00;151338.03;13070966;22;20445;-81
2023/12/25 01:12:12;;;;;;;0.65;0.13;;;;;;;10.61;100.00;151344.47;13071850;22;20495;-82
2023/12/25 01:17:14;;;;;;;0.20;0.20;;;;;;;10.42;100.00;151294.13;13018027;22;20019;-81
2023/12/25 01:22:16;;;;;;;0.20;0.10;;;;;;;10.59;99.87;151339.31;13044167;22;20046;-81
2023/12/25 01:27:18;;;;;;;0.10;0.10;;;;;;;10.64;99.82;151349.66;13072932;22;20400;-82
2023/12/25 01:32:19;;;;;;;0.20;0.10;;;;;;;10.70;98.32;151365.13;13022846;22;20453;-82
2023/12/25 01:37:21;;;;;;;0.32;0.10;;;;;;;10.70;98.16;151366.41;13074053;22;20021;-81
2023/12/25 01:42:23;;;;;;;0.68;0.10;;;;;;;10.69;97.81;151362.56;13072454;22;20354;-82
2023/12/25 01:47:25;;;;;;;0.17;0.10;;;;;;;10.74;97.47;151375.47;13043932;22;20019;-82
2023/12/25 01:52:27;;;;;;;0.88;0.30;;;;;;;10.69;97.21;151363.84;13070413;22;20023;-82
2023/12/25 01:57:32;;;;;;;0.20;0.03;;;;;;;10.71;96.83;151369.00;13041218;22;20473;-82
2023/12/25 02:02:34;;;;;;;0.65;0.10;;;;;;;10.77;95.89;151383.22;13041638;22;20449;-82
2023/12/25 02:07:38;;;;;;;0.50;0.17;;;;;;;10.74;96.58;151376.75;13041061;22;20043;-82
2023/12/25 02:12:40;;;;;;;0.60;0.10;;;;;;;10.64;97.90;151349.66;13068716;22;20022;-81
2023/12/25 02:17:42;;;;;;;0.30;0.10;;;;;;;10.50;99.81;151314.81;13042326;22;20445;-82
2023/12/25 02:22:44;;;;;;;0.98;0.20;;;;;;;10.41;100.00;151292.84;13042408;22;20065;-82
2023/12/25 02:27:46;;;;;;;0.45;0.20;;;;;;;10.30;100.00;151265.72;13068462;22;20011;-81
2023/12/25 02:32:48;;;;;;;0.93;0.10;;;;;;;10.37;100.00;151281.25;13016782;22;20081;-82
2023/12/25 02:37:50;;;;;;;0.65;0.20;;;;;;;10.40;98.96;151290.22;13068933;22;20011;-82
2023/12/25 02:42:52;;;;;;;0.10;0.10;;;;;;;10.43;97.73;151298.00;13042105;22;20019;-81
2023/12/25 02:47:53;;;;;;;0.28;0.10;;;;;;;10.50;96.75;151314.81;13045382;22;20018;-81
2023/12/25 02:52:58;;;;;;;0.22;0.20;;;;;;;10.54;96.08;151325.13;13050663;22;20020;-81
2023/12/25 02:57:59;;;;;;;0.50;0.08;;;;;;;10.76;93.95;151380.66;13074112;22;20050;-83
2023/12/25 03:03:01;;;;;;;0.50;0.20;;;;;;;10.63;94.63;151347.09;13023280;22;20035;-82
2023/12/25 03:08:04;;;;;;;0.28;0.10;;;;;;;10.67;94.29;151357.38;13046788;22;20035;-83
2023/12/25 03:13:05;;;;;;;0.10;0.10;;;;;;;10.61;94.86;151343.19;13027354;22;20030;-81
2023/12/25 03:18:07;;;;;;;0.30;0.30;;;;;;;10.77;93.31;151384.53;13046624;22;20019;-82
2023/12/25 03:23:09;;;;;;;0.22;0.20;;;;;;;10.86;92.18;151407.75;13074330;22;20349;-84
2023/12/25 03:28:11;;;;;;;0.10;0.10;;;;;;;10.81;92.71;151394.84;13047176;22;20346;-82
2023/12/25 03:33:13;;;;;;;1.08;0.20;;;;;;;10.86;91.89;151406.47;13077493;22;20016;-82
2023/12/25 03:38:15;;;;;;;0.10;0.10;;;;;;;10.75;92.84;151378.03;13058281;22;20038;-83
2023/12/25 03:43:16;;;;;;;0.20;0.00;;;;;;;10.88;91.88;151411.63;13047498;22;20019;-80
2023/12/25 03:48:20;;;;;;;0.20;0.00;;;;;;;10.87;92.37;151409.06;13075045;22;20077;-82
2023/12/25 03:53:23;;;;;;;0.50;0.17;;;;;;;10.83;93.30;151400.00;13075018;22;20097;-81
2023/12/25 03:58:25;;;;;;;0.75;0.10;;;;;;;10.73;94.55;151372.91;13073938;22;20075;-81
2023/12/25 04:03:26;;;;;;;0.90;0.20;;;;;;;10.56;96.21;151331.56;13045296;22;20035;-83
2023/12/25 04:08:29;;;;;;;0.13;0.10;;;;;;;10.48;95.82;151310.91;13044896;22;20016;-81
2023/12/25 04:13:31;;;;;;;0.10;0.03;;;;;;;10.35;96.89;151277.34;13044506;22;20077;-82
2023/12/25 04:18:32;;;;;;;0.60;0.10;;;;;;;10.48;95.43;151310.91;13044024;22;20355;-82
2023/12/25 04:23:34;;;;;;;0.10;0.10;;;;;;;10.59;94.14;151338.03;13044798;22;20027;-82
2023/12/25 04:28:36;;;;;;;0.32;0.00;;;;;;;10.53;94.20;151323.81;13043594;22;20024;-82
2023/12/25 04:33:38;;;;;;;0.10;0.10;;;;;;;10.60;93.09;151340.63;13071331;22;20461;-81
2023/12/25 04:38:41;;;;;;;0.25;0.10;;;;;;;10.51;93.36;151317.38;13072487;22;20456;-82
2023/12/25 04:43:43;;;;;;;0.00;0.00;;;;;;;10.72;90.60;151370.34;13050447;22;20072;-80
2023/12/25 04:48:45;;;;;;;0.10;0.10;;;;;;;10.82;89.11;151396.13;13020652;22;20043;-80
2023/12/25 04:53:47;;;;;;;0.00;0.00;;;;;;;10.79;89.75;151388.38;13044379;22;20039;-81
2023/12/25 04:58:49;;;;;;;0.47;0.03;;;;;;;10.83;88.55;151400.00;13076060;22;20089;-81
2023/12/25 05:03:51;;;;;;;0.05;0.00;;;;;;;10.85;88.10;151403.91;13037169;22;20023;-80
2023/12/25 05:08:52;;;;;;;0.08;0.08;;;;;;;10.75;88.81;151378.03;13050258;22;20045;-82
2023/12/25 05:13:54;;;;;;;0.00;0.00;;;;;;;10.79;88.22;151388.38;13036954;22;20019;-81
2023/12/25 05:18:56;;;;;;;0.00;0.00;;;;;;;10.68;89.28;151361.28;13045991;22;20042;-80
2023/12/25 05:23:58;;;;;;;0.00;0.00;;;;;;;10.67;89.27;151357.38;13099693;22;20019;-80
2023/12/25 05:29:00;;;;;;;0.63;0.10;;;;;;;10.74;88.51;151376.75;13087009;22;20008;-81
2023/12/25 05:34:01;;;;;;;0.00;0.00;;;;;;;10.83;87.61;151400.00;13073674;22;20079;-81
2023/12/25 05:39:03;;;;;;;0.10;0.10;;;;;;;10.78;87.87;151387.09;13072465;22;20020;-82
2023/12/25 05:44:14;;;;;;;0.45;0.10;;;;;;;10.74;88.09;151376.75;13070153;22;20015;-83
2023/12/25 05:49:16;;;;;;;0.00;0.00;;;;;;;10.74;88.48;151376.75;13070826;22;20054;-84
2023/12/25 05:54:18;;;;;;;0.20;0.10;;;;;;;10.72;89.34;151370.34;13067820;22;20098;-81
2023/12/25 05:59:20;;;;;;;0.00;0.00;;;;;;;10.79;88.27;151388.38;13066787;22;20015;-83
2023/12/25 06:04:22;;;;;;;0.10;0.10;;;;;;;10.65;89.23;151353.53;13068675;22;20026;-82
2023/12/25 06:09:25;;;;;;;0.05;0.00;;;;;;;10.73;88.70;151372.91;13040844;22;20043;-81
2023/12/25 06:14:27;;;;;;;0.00;0.00;;;;;;;10.83;87.45;151398.72;13069219;22;20015;-82
2023/12/25 06:19:31;;;;;;;0.10;0.00;;;;;;;10.95;86.50;151429.72;13070450;22;20349;-82
2023/12/25 06:24:33;;;;;;;0.10;0.10;;;;;;;10.91;86.73;151418.09;13073751;22;20026;-81
2023/12/25 06:29:34;;;;;;;0.10;0.10;;;;;;;10.99;86.23;151440.06;13076603;22;20022;-81
2023/12/25 06:34:36;;;;;;;0.10;0.10;;;;;;;10.89;87.13;151414.25;13089059;22;20019;-81
2023/12/25 06:39:38;;;;;;;0.10;0.10;;;;;;;10.94;86.48;151427.16;13089600;22;20020;-83
2023/12/25 06:44:40;;;;;;;0.20;0.10;;;;;;;11.05;85.42;151454.25;13076122;22;20019;-83
2023/12/25 06:49:41;;;;;;;0.00;0.00;;;;;;;11.05;85.26;151455.53;13077086;22;20033;-82
2023/12/25 06:54:43;;;;;;;0.05;0.05;;;;;;;11.16;84.45;151482.69;13058164;22;20053;-82
2023/12/25 06:59:45;;;;;;;0.10;0.05;;;;;;;11.04;86.06;151452.97;13072513;22;20011;-82
2023/12/25 07:04:47;;;;;;;0.00;0.00;;;;;;;11.13;85.93;151473.63;13072034;22;20023;-82
2023/12/25 07:09:48;;;;;;;0.00;0.00;;;;;;;11.08;86.21;151462.00;13075459;22;20023;-82
2023/12/25 07:14:50;;;;;;;0.00;0.00;;;;;;;11.19;85.04;151490.41;13081952;22;20019;-83
2023/12/25 07:19:52;;;;;;;0.00;0.00;;;;;;;11.12;85.42;151472.34;13044917;22;20016;-82
2023/12/25 07:24:54;;;;;;;0.00;0.00;;;;;;;11.34;84.10;151529.19;13041896;22;20094;-82
2023/12/25 07:29:56;;;;;;;0.00;0.00;;;;;;;11.19;85.36;151490.41;13073026;22;20019;-81
2023/12/25 07:34:58;;;;;;;0.13;0.13;;;;;;;11.18;85.48;151486.56;13077657;22;20463;-83
2023/12/25 07:39:59;;;;;;;0.13;0.10;;;;;;;11.31;84.41;151520.13;13077533;22;20016;-81
2023/12/25 07:45:01;;;;;;;0.00;0.00;;;;;;;11.15;87.40;151480.06;13100391;22;20015;-80
2023/12/25 07:50:04;;;;;;;0.20;0.20;;;;;;;11.16;87.36;151481.41;13083332;22;20015;-81
2023/12/25 07:55:06;;;;;;;0.00;0.00;;;;;;;11.08;87.55;151463.31;13078840;22;20015;-83
2023/12/25 08:00:08;;;;;;;0.22;0.00;;;;;;;11.28;85.73;151512.38;13049950;22;20041;-82
2023/12/25 08:05:13;;;;;;;0.00;0.00;;;;;;;11.28;85.63;151513.66;13076756;22;20102;-81
2023/12/25 08:10:14;;;;;;;0.10;0.10;;;;;;;11.32;85.16;151522.72;13044865;22;20077;-81
2023/12/25 08:15:16;;;;;;;0.10;0.10;;;;;;;11.30;84.74;151518.84;13070719;22;20038;-82
2023/12/25 08:20:19;;;;;;;0.00;0.00;;;;;;;11.39;83.66;151539.53;13074908;22;20019;-81
2023/12/25 08:25:20;;;;;;;0.00;0.00;;;;;;;11.38;84.03;151538.25;13046142;22;20019;-83
2023/12/25 08:30:22;;;;;;;0.10;0.00;;;;;;;11.27;84.78;151509.81;13079108;22;20011;-82
2023/12/25 08:35:24;;;;;;;2.63;2.42;;;;;;;11.40;83.61;151543.38;13079024;22;20069;-82
2023/12/25 08:40:27;;;;;;;0.40;0.40;;;;;;;11.37;83.38;151536.91;13077090;22;20037;-81
2023/12/25 08:45:29;;;;;;;0.40;0.20;;;;;;;11.41;83.47;151544.69;13072244;22;20098;-82
2023/12/25 08:50:31;;;;;;;0.10;0.10;;;;;;;11.49;82.75;151566.63;13068654;22;20031;-83
2023/12/25 08:55:33;;;;;;;0.10;0.10;;;;;;;11.50;82.00;151569.22;13068768;22;20029;-82
2023/12/25 09:00:34;;;;;;;0.20;0.10;;;;;;;11.60;81.42;151593.81;13079804;22;20022;-82
2023/12/25 09:05:36;;;;;;;0.10;0.10;;;;;;;11.67;80.88;151611.88;13042050;22;20015;-83
2023/12/25 09:10:38;;;;;;;0.05;0.05;;;;;;;11.83;79.66;151652.00;13073890;22;20011;-82
2023/12/25 09:15:40;;;;;;;0.22;0.10;;;;;;;11.88;79.46;151664.91;13072518;22;20022;-83
2023/12/25 09:20:41;;;;;;;0.00;0.00;;;;;;;11.80;80.45;151644.19;13069681;22;20011;-83
2023/12/25 09:25:44;;;;;;;0.15;0.10;;;;;;;11.99;79.05;151693.31;13041417;22;20418;-82
2023/12/25 09:30:45;;;;;;;0.30;0.10;;;;;;;11.93;79.31;151677.84;13039066;22;20015;-81
2023/12/25 09:35:47;;;;;;;0.20;0.10;;;;;;;11.90;79.96;151670.06;13068116;22;20019;-82
2023/12/25 09:40:50;;;;;;;0.10;0.10;;;;;;;11.90;80.79;151668.78;13038783;22;20023;-80
2023/12/25 09:45:52;;;;;;;0.30;0.10;;;;;;;11.93;81.02;151676.53;13082053;22;20059;-82
2023/12/25 09:50:57;;;;;;;0.65;0.40;;;;;;;12.05;81.11;151707.56;13057410;22;20015;-81
2023/12/25 09:56:01;;;;;;;0.50;0.32;;;;;;;11.86;84.42;151659.72;13067551;22;20019;-82
2023/12/25 10:01:04;;;;;;;0.57;0.57;;;;;;;11.83;85.86;151653.28;13042854;22;20050;-81
2023/12/25 10:06:06;;;;;;;0.65;0.65;;;;;;;11.70;93.16;151618.34;13078272;22;20015;-81
2023/12/25 10:11:13;;;;;;;1.25;0.90;;;;;;;11.30;99.47;151517.56;13066309;22;20065;-82
2023/12/25 10:16:14;;;;;;;0.10;0.10;;;;;;;11.03;100.00;151449.09;13086107;22;20036;-81
2023/12/25 10:21:16;;;;;;;0.20;0.20;;;;;;;10.79;100.00;151389.66;13077184;22;20063;-82
2023/12/25 10:26:28;;;;;;;0.40;0.20;;;;;;;10.70;100.00;151365.13;13079391;22;20026;-82
2023/12/25 10:31:30;;;;;;;0.13;0.13;;;;;;;10.58;100.00;151335.41;13104897;22;20583;-82
2023/12/25 10:36:32;;;;;;;0.25;0.20;;;;;;;10.62;100.00;151345.75;13082735;22;20015;-83
2023/12/25 10:41:35;;;;;;;0.70;0.28;;;;;;;10.79;100.00;151389.66;13072709;22;20011;-82
2023/12/25 10:46:38;;;;;;;0.10;0.10;;;;;;;10.98;100.00;151436.16;13077400;22;20041;-81
2023/12/25 10:51:43;;;;;;;0.28;0.22;;;;;;;11.02;100.00;151446.47;13048863;22;20034;-81
2023/12/25 10:56:47;;;;;;;0.40;0.20;;;;;;;11.19;96.58;151489.13;13080660;22;20045;-82
2023/12/25 11:01:51;;;;;;;0.20;0.20;;;;;;;11.18;96.14;151487.84;13077206;22;20030;-81
2023/12/25 11:06:54;;;;;;;0.15;0.10;;;;;;;11.17;94.74;151483.97;13083532;22;20015;-81
2023/12/25 11:11:57;;;;;;;0.20;0.20;;;;;;;11.13;94.39;151474.91;13072351;22;20064;-81
2023/12/25 11:16:59;;;;;;;0.17;0.10;;;;;;;11.24;93.40;151502.03;13080113;22;20109;-81
2023/12/25 11:22:33;;;;;;;0.10;0.05;;;;;;;11.28;92.31;151513.66;13068609;22;20445;-80
2023/12/25 11:27:36;;;;;;;0.52;0.03;;;;;;;11.22;92.16;151498.16;13077742;22;20042;-81
2023/12/25 11:32:45;;;;;;;0.10;0.10;;;;;;;10.95;94.13;151428.44;13064169;22;20041;-81
2023/12/25 11:37:48;;;;;;;0.13;0.10;;;;;;;11.22;90.27;151496.88;13036628;22;20026;-81
2023/12/25 11:42:49;;;;;;;0.13;0.10;;;;;;;11.16;91.23;151482.69;13063823;22;20095;-80
2023/12/25 11:47:54;;;;;;;0.47;0.10;;;;;;;11.27;89.01;151511.09;13064670;22;20015;-81
2023/12/25 11:52:56;;;;;;;0.45;0.20;;;;;;;11.35;88.92;151531.75;13035053;22;20012;-80
2023/12/25 11:57:58;;;;;;;0.00;0.00;;;;;;;11.34;90.31;151529.19;13062722;22;20019;-80
2023/12/25 12:03:00;;;;;;;0.10;0.10;;;;;;;11.38;89.78;151538.25;13098040;22;20102;-79
2023/12/25 12:08:02;;;;;;;0.30;0.20;;;;;;;11.21;91.76;151495.59;13093904;22;20015;-81
2023/12/25 12:13:04;;;;;;;0.10;0.10;;;;;;;11.18;90.92;151486.56;13064479;22;20034;-81
2023/12/25 12:18:05;;;;;;;0.52;0.50;;;;;;;11.13;91.69;151473.63;13070115;22;20016;-80
2023/12/25 12:23:13;;;;;;;0.15;0.15;;;;;;;10.89;97.13;151412.91;13041916;22;20019;-81
2023/12/25 12:28:15;;;;;;;0.50;0.50;;;;;;;10.75;100.00;151379.31;13070322;22;20019;-80
2023/12/25 12:33:20;;;;;;;0.50;0.30;;;;;;;10.51;100.00;151317.38;13069146;22;20137;-80
2023/12/25 12:38:22;;;;;;;0.73;0.50;;;;;;;10.43;100.00;151296.72;13075528;22;20023;-80
2023/12/25 12:43:24;;;;;;;0.65;0.52;;;;;;;10.17;100.00;151230.81;13075902;22;20126;-80
2023/12/25 12:48:26;;;;;;;0.95;0.60;;;;;;;10.00;100.00;151189.50;13094184;22;20018;-80
2023/12/25 12:53:28;;;;;;;1.42;0.60;;;;;;;10.09;100.00;151211.44;13072784;22;20022;-79
2023/12/25 12:58:30;;;;;;;1.73;1.00;;;;;;;9.96;100.00;151177.88;13069309;22;20053;-80
2023/12/25 13:03:31;;;;;;;0.57;0.52;;;;;;;9.96;100.00;151177.88;13067761;22;20511;-82
2023/12/25 13:08:33;;;;;;;1.70;1.08;;;;;;;9.75;100.00;151126.31;13067554;22;20041;-80
2023/12/25 13:13:35;;;;;;;0.38;0.20;;;;;;;9.65;100.00;151100.50;13067515;22;20401;-80
2023/12/25 13:18:37;;;;;;;0.17;0.17;;;;;;;9.69;100.00;151110.78;13071421;22;20022;-81
2023/12/25 13:23:39;;;;;;;0.20;0.20;;;;;;;9.63;100.00;151095.31;13098945;22;20034;-80
2023/12/25 13:28:41;;;;;;;0.98;0.30;;;;;;;9.66;100.00;151103.09;13087723;22;20026;-80
2023/12/25 13:33:43;;;;;;;0.93;0.50;;;;;;;9.58;100.00;151083.72;13069809;22;20019;-81
2023/12/25 13:38:46;;;;;;;0.40;0.30;;;;;;;9.62;100.00;151092.75;13042833;22;20015;-79
2023/12/25 13:43:48;;;;;;;0.65;0.40;;;;;;;9.52;100.00;151066.97;13068993;22;20464;-80
2023/12/25 13:48:52;;;;;;;0.38;0.38;;;;;;;9.48;100.00;151056.63;13041704;22;20023;-80
2023/12/25 13:53:54;;;;;;;0.85;0.38;;;;;;;9.39;100.00;151033.41;13041195;22;20510;-80
2023/12/25 13:58:56;;;;;;;0.57;0.35;;;;;;;9.46;100.00;151051.44;13067736;22;20034;-80
2023/12/25 14:03:57;;;;;;;1.00;0.40;;;;;;;9.46;100.00;151051.44;13040121;22;20023;-80
2023/12/25 14:08:59;;;;;;;0.73;0.32;;;;;;;9.48;100.00;151057.94;13065874;22;20019;-80
2023/12/25 14:14:01;;;;;;;0.22;0.22;;;;;;;9.34;100.00;151023.09;13063901;22;20094;-80
2023/12/25 14:19:04;;;;;;;0.40;0.35;;;;;;;9.33;100.00;151019.19;13063079;22;20050;-80
2023/12/25 14:24:06;;;;;;;1.10;0.40;;;;;;;9.32;100.00;151017.91;13064782;22;20023;-80
2023/12/25 14:29:08;;;;;;;3.67;1.35;;;;;;;9.30;100.00;151012.78;13064821;22;20019;-79
2023/12/25 14:34:10;;;;;;;1.58;0.80;;;;;;;9.27;100.00;151003.75;13067724;22;20038;-77
2023/12/25 14:39:13;;;;;;;0.55;0.43;;;;;;;9.23;100.00;150994.69;13045687;22;20037;-79
2023/12/25 14:44:17;;;;;;;0.20;0.20;;;;;;;9.32;100.00;151016.63;13047605;22;20026;-80
2023/12/25 14:49:19;;;;;;;0.20;0.20;;;;;;;9.29;100.00;151008.88;13080918;22;20015;-78
2023/12/25 14:54:21;;;;;;;0.47;0.13;;;;;;;9.30;100.00;151011.50;13079964;22;20019;-80
2023/12/25 14:59:23;;;;;;;0.28;0.17;;;;;;;9.27;100.00;151003.75;13082671;22;20011;-82
2023/12/25 15:04:24;;;;;;;0.73;0.30;;;;;;;9.19;100.00;150983.09;13042858;22;20094;-80
2023/12/25 15:09:27;;;;;;;0.30;0.30;;;;;;;9.13;100.00;150968.91;13047186;22;20022;-82
2023/12/25 15:14:29;;;;;;;0.25;0.15;;;;;;;9.20;100.00;150986.94;13075482;22;20352;-82
2023/12/25 15:19:31;;;;;;;0.32;0.20;;;;;;;9.09;100.00;150958.59;13070358;22;20019;-81
2023/12/25 15:24:34;;;;;;;0.40;0.28;;;;;;;9.17;100.00;150979.25;13045631;22;20015;-80
2023/12/25 15:29:35;;;;;;;0.30;0.20;;;;;;;9.17;100.00;150977.94;13073886;22;20070;-81
2023/12/25 15:34:38;;;;;;;3.30;0.20;;;;;;;9.06;100.00;150950.84;13075141;22;20015;-81
2023/12/25 15:39:39;;;;;;;0.30;0.20;;;;;;;9.09;100.00;150958.59;13047115;22;20067;-83
2023/12/25 15:44:41;;;;;;;0.10;0.10;;;;;;;9.20;100.00;150985.66;13075442;22;20026;-81
2023/12/25 15:49:44;;;;;;;0.22;0.22;;;;;;;9.13;100.00;150968.91;13072876;22;20015;-81
2023/12/25 15:54:46;;;;;;;0.43;0.20;;;;;;;9.25;100.00;150999.88;13050787;22;20081;-80
2023/12/25 15:59:48;;;;;;;0.45;0.20;;;;;;;9.32;100.00;151017.91;13081969;22;20015;-81
2023/12/25 16:04:51;;;;;;;0.63;0.47;;;;;;;9.02;100.00;150941.81;13048194;22;20047;-83
2023/12/25 16:09:53;;;;;;;1.02;0.70;;;;;;;9.09;100.00;150959.88;13073318;22;20011;-83
2023/12/25 16:14:56;;;;;;;1.02;0.68;;;;;;;8.90;100.00;150909.56;13074563;22;20019;-82
2023/12/25 16:20:00;;;;;;;2.80;0.93;;;;;;;8.98;100.00;150930.19;13072112;22;20012;-82
2023/12/25 16:25:02;;;;;;;2.80;1.90;;;;;;;8.97;100.00;150928.91;13074010;22;20098;-81
2023/12/25 16:30:05;;;;;;;2.63;1.65;;;;;;;9.27;100.00;151003.75;13073753;22;20011;-82
2023/12/25 16:35:07;;;;;;;1.27;0.90;;;;;;;9.42;100.00;151041.13;13046324;22;20042;-81
2023/12/25 16:40:13;;;;;;;0.80;0.60;;;;;;;9.22;100.00;150990.84;13074874;22;20387;-83
2023/12/25 16:45:14;;;;;;;0.40;0.40;;;;;;;9.22;100.00;150992.13;13070369;22;20458;-81
2023/12/25 16:50:16;;;;;;;0.35;0.35;;;;;;;9.09;100.00;150958.59;13043951;22;20016;-80
2023/12/25 16:55:18;;;;;;;0.45;0.30;;;;;;;9.19;100.00;150983.09;13048634;22;20015;-82
2023/12/25 17:00:21;;;;;;;0.60;0.30;;;;;;;9.09;100.00;150959.88;13075411;22;20016;-82
2023/12/25 17:05:23;;;;;;;0.77;0.20;;;;;;;9.24;100.00;150995.97;13073557;22;20396;-81
2023/12/25 17:10:25;;;;;;;0.20;0.20;;;;;;;9.09;100.00;150959.88;13043758;22;20026;-81
2023/12/25 17:15:27;;;;;;;0.50;0.35;;;;;;;9.10;100.00;150961.16;13068917;22;20469;-82
2023/12/25 17:20:29;;;;;;;0.30;0.30;;;;;;;9.03;100.00;150943.09;13069634;22;20303;-82
2023/12/25 17:25:32;;;;;;;0.30;0.30;;;;;;;9.19;100.00;150983.09;13071607;22;20019;-82
2023/12/25 17:30:34;;;;;;;0.38;0.30;;;;;;;9.07;100.00;150953.41;13072852;22;20020;-82
2023/12/25 17:35:36;;;;;;;0.73;0.30;;;;;;;9.11;100.00;150963.72;13079370;22;20086;-81
2023/12/25 17:40:38;;;;;;;1.20;0.90;;;;;;;9.17;100.00;150977.94;13075741;22;20311;-82
2023/12/25 17:45:40;;;;;;;1.10;0.82;;;;;;;9.14;100.00;150970.19;13050388;22;20019;-81
2023/12/25 17:50:42;;;;;;;1.85;0.70;;;;;;;9.20;100.00;150986.94;13077358;22;20298;-79
2023/12/25 17:55:44;;;;;;;1.02;0.68;;;;;;;9.06;100.00;150952.13;13070709;22;20019;-80
2023/12/25 18:00:46;;;;;;;2.15;1.30;;;;;;;9.16;100.00;150975.34;13079320;22;20039;-80
2023/12/25 18:05:48;;;;;;;2.10;1.15;;;;;;;8.91;100.00;150913.47;13068167;22;20136;-80
2023/12/25 18:10:50;;;;;;;1.30;0.77;;;;;;;8.69;100.00;150856.72;13074415;22;20050;-81
2023/12/25 18:15:52;;;;;;;0.90;0.68;;;;;;;8.69;100.00;150856.72;13022776;22;20023;-80
2023/12/25 18:20:54;;;;;;;0.30;0.30;;;;;;;8.61;100.00;150836.09;13071687;22;20513;-80
2023/12/25 18:25:58;;;;;;;0.52;0.43;;;;;;;8.61;100.00;150837.38;13078545;22;20185;-81
2023/12/25 18:31:00;;;;;;;1.02;0.70;;;;;;;8.61;100.00;150836.09;13071893;22;20015;-81
2023/12/25 18:36:02;;;;;;;0.70;0.70;;;;;;;8.69;100.00;150858.00;13071719;22;20031;-82
2023/12/25 18:41:04;;;;;;;1.13;0.73;;;;;;;8.64;100.00;150843.84;13072264;22;20045;-81
2023/12/25 18:46:06;;;;;;;1.15;0.90;;;;;;;8.81;100.00;150887.69;13074609;22;20026;-82
2023/12/25 18:51:08;;;;;;;0.90;0.80;;;;;;;8.69;100.00;150858.00;13058807;22;20028;-79
2023/12/25 18:56:10;;;;;;;1.83;0.90;;;;;;;8.71;100.00;150861.88;13075111;22;20015;-81
2023/12/25 19:01:13;;;;;;;1.50;1.00;;;;;;;8.86;100.00;150900.56;13075309;22;20015;-82
2023/12/25 19:06:15;;;;;;;1.95;1.83;;;;;;;8.65;100.00;150846.41;13046802;22;20369;-81
2023/12/25 19:11:17;;;;;;;1.52;1.10;;;;;;;8.70;100.00;150859.28;13075031;22;20023;-82
2023/12/25 19:16:19;;;;;;;1.40;1.00;;;;;;;8.68;100.00;150855.44;13047280;22;20357;-82
2023/12/25 19:21:21;;;;;;;1.60;1.50;;;;;;;8.61;100.00;150836.09;13074094;22;20019;-82
2023/12/25 19:26:32;;;;;;;2.70;2.50;;;;;;;8.52;100.00;150814.19;13077334;22;20019;-82
2023/12/25 19:31:37;;;;;;;2.28;2.00;;;;;;;8.44;100.00;150794.81;13078311;22;20441;-82
2023/12/25 19:36:39;;;;;;;3.20;2.63;;;;;;;8.37;100.00;150776.81;13080575;22;20015;-81
2023/12/25 19:41:41;;;;;;;2.20;2.00;;;;;;;8.40;100.00;150783.22;13086397;22;20446;-82
2023/12/25 19:46:43;;;;;;;3.03;2.75;;;;;;;8.39;100.00;150780.66;13077207;22;20019;-82
2023/12/25 19:51:45;;;;;;;2.55;2.35;;;;;;;8.46;100.00;150800.00;13075420;22;20015;-81
2023/12/25 19:56:47;;;;;;;2.55;2.35;;;;;;;8.42;100.00;150789.69;13095554;22;20019;-81
2023/12/25 20:01:49;;;;;;;2.95;2.30;;;;;;;8.40;100.00;150783.22;13085440;22;20027;-80
2023/12/25 20:06:51;;;;;;;3.45;1.85;;;;;;;8.42;100.00;150788.41;13055496;22;20023;-81
2023/12/25 20:11:53;;;;;;;1.50;1.40;;;;;;;8.35;100.00;150772.88;13081567;22;20031;-80
2023/12/25 20:16:55;;;;;;;1.90;1.10;;;;;;;8.38;100.00;150779.38;13072451;22;20066;-82
2023/12/25 20:21:57;;;;;;;1.40;1.00;;;;;;;8.72;100.00;150865.75;13081718;22;20056;-82
2023/12/25 20:26:59;;;;;;;0.93;0.82;;;;;;;8.61;100.00;150837.38;13080100;22;20080;-81
2023/12/25 20:32:01;;;;;;;0.52;0.50;;;;;;;8.49;100.00;150807.72;13077702;22;20023;-81
2023/12/25 20:37:12;;;;;;;0.77;0.40;;;;;;;8.51;100.00;150812.88;13077142;22;20015;-81
2023/12/25 20:42:14;;;;;;;0.80;0.73;;;;;;;8.54;100.00;150819.31;13080994;22;20019;-81
2023/12/25 20:47:17;;;;;;;0.65;0.60;;;;;;;8.89;100.00;150908.28;13062173;22;20376;-82
2023/12/25 20:52:22;;;;;;;0.40;0.40;;;;;;;8.76;100.00;150874.75;13078805;22;20045;-82
2023/12/25 20:57:24;;;;;;;0.22;0.22;;;;;;;8.70;100.00;150859.28;13048895;22;20033;-82
2023/12/25 21:02:28;;;;;;;1.15;0.30;;;;;;;8.82;100.00;150891.53;13077942;22;20033;-82
2023/12/25 21:07:31;;;;;;;1.38;0.32;;;;;;;9.08;100.00;150957.31;13049228;22;20102;-82
2023/12/25 21:12:34;;;;;;;0.30;0.30;;;;;;;9.02;100.00;150941.81;13076627;22;20410;-82
2023/12/25 21:17:36;;;;;;;0.28;0.28;;;;;;;9.11;100.00;150963.72;13075625;22;20019;-82
2023/12/25 21:22:38;;;;;;;0.30;0.20;;;;;;;9.16;100.00;150975.34;13048501;22;20345;-81
2023/12/25 21:27:40;;;;;;;0.30;0.30;;;;;;;9.39;100.00;151033.41;13076220;22;20019;-81
2023/12/25 21:32:42;;;;;;;0.22;0.15;;;;;;;9.48;100.00;151057.94;13074469;22;20082;-80
2023/12/25 21:37:44;;;;;;;0.20;0.20;;;;;;;9.59;100.00;151086.28;13073489;22;20015;-82
2023/12/25 21:42:46;;;;;;;0.10;0.10;;;;;;;9.66;100.00;151101.78;13076385;22;20078;-81
2023/12/25 21:47:48;;;;;;;0.20;0.10;;;;;;;9.65;100.00;151100.50;13077316;22;20015;-82
2023/12/25 21:52:50;;;;;;;0.20;0.15;;;;;;;9.81;100.00;151141.78;13075477;22;20015;-81
2023/12/25 21:57:53;;;;;;;0.22;0.20;;;;;;;9.83;100.00;151145.66;13075661;22;20023;-82
2023/12/25 22:02:55;;;;;;;0.28;0.20;;;;;;;9.81;100.00;151141.78;13047657;22;20349;-81
2023/12/25 22:08:00;;;;;;;0.03;0.03;;;;;;;9.89;100.00;151161.13;13075950;22;20039;-81
2023/12/25 22:13:03;;;;;;;0.28;0.17;;;;;;;10.00;100.00;151189.50;13075299;22;20015;-82
2023/12/25 22:18:05;;;;;;;0.20;0.20;;;;;;;9.93;100.00;151170.19;13046866;22;20022;-82
2023/12/25 22:23:08;;;;;;;0.10;0.10;;;;;;;10.03;100.00;151195.97;13047181;22;20421;-81
2023/12/25 22:28:09;;;;;;;0.43;0.00;;;;;;;9.95;100.00;151176.59;13073672;22;20023;-82
2023/12/25 22:33:11;;;;;;;0.10;0.00;;;;;;;9.97;100.00;151181.78;13073583;22;20394;-82
2023/12/25 22:38:14;;;;;;;0.03;0.03;;;;;;;10.15;100.00;151226.97;13024943;22;20050;-82
2023/12/25 22:43:16;;;;;;;0.20;0.20;;;;;;;10.14;100.00;151224.41;13061479;22;20003;-82
2023/12/25 22:48:19;;;;;;;0.20;0.20;;;;;;;10.09;100.00;151211.44;13108312;22;20027;-81
2023/12/25 22:53:21;;;;;;;0.10;0.10;;;;;;;10.15;100.00;151226.97;13109208;22;20007;-79
2023/12/25 22:58:22;;;;;;;0.10;0.10;;;;;;;10.11;100.00;151217.91;13082865;22;20122;-81
2023/12/25 23:03:24;;;;;;;0.13;0.10;;;;;;;10.07;100.00;151206.31;13101563;22;20018;-82
2023/12/25 23:08:26;;;;;;;0.10;0.10;;;;;;;10.16;100.00;151229.53;13084650;22;20019;-82